Time;durP1;ratioP1;P1;durP2;ratioP2;P2;SDS_P1;SDS_P2;PMS_P1;PMS_P2;Temp;Humidity;BMP_temperature;BMP_pressure;BME280_temperature;BME280_humidity;BME280_pressure;Samples;Min_cycle;Max_cycle;Signal;HPM_P1;HPM_P2
2023/07/16 00:00:53;;;;;;;11.63;3.90;;;17.20;99.90;;;;;;5094859;28;20104;-78
2023/07/16 00:03:18;;;;;;;12.90;3.40;;;17.20;99.90;;;;;;5095730;28;20466;-79
2023/07/16 00:05:44;;;;;;;12.27;3.63;;;17.10;99.90;;;;;;5095377;28;20044;-78
2023/07/16 00:08:10;;;;;;;11.17;3.80;;;17.10;99.90;;;;;;5095839;28;20048;-78
2023/07/16 00:10:36;;;;;;;13.23;3.87;;;17.00;99.90;;;;;;5095329;28;20079;-78
2023/07/16 00:13:03;;;;;;;14.33;3.90;;;16.90;99.90;;;;;;5095421;28;20051;-78
2023/07/16 00:15:29;;;;;;;13.20;4.53;;;16.90;99.90;;;;;;5093931;28;20075;-78
2023/07/16 00:17:55;;;;;;;10.50;3.67;;;16.90;99.90;;;;;;5094344;28;20105;-78
2023/07/16 00:20:23;;;;;;;11.40;3.53;;;16.80;99.90;;;;;;5095239;28;20044;-78
2023/07/16 00:22:50;;;;;;;9.77;3.27;;;16.80;99.90;;;;;;5094162;28;20044;-78
2023/07/16 00:25:15;;;;;;;9.47;3.30;;;16.80;99.90;;;;;;5095217;28;20055;-78
2023/07/16 00:27:41;;;;;;;10.23;3.40;;;16.70;99.90;;;;;;5093793;28;20052;-78
2023/07/16 00:30:07;;;;;;;11.30;3.40;;;16.70;99.90;;;;;;5094242;28;20052;-78
2023/07/16 00:32:33;;;;;;;13.40;4.07;;;16.70;99.90;;;;;;5094749;28;20039;-78
2023/07/16 00:35:00;;;;;;;14.70;4.20;;;16.70;99.90;;;;;;5093870;28;20048;-79
2023/07/16 00:37:26;;;;;;;10.03;2.80;;;16.70;99.90;;;;;;5093651;28;20079;-82
2023/07/16 00:39:51;;;;;;;11.23;3.37;;;16.70;99.90;;;;;;5094033;28;20541;-79
2023/07/16 00:42:17;;;;;;;11.53;3.80;;;16.70;99.90;;;;;;5094969;28;20044;-78
2023/07/16 00:44:43;;;;;;;10.90;3.50;;;16.70;99.90;;;;;;5094646;28;20070;-78
2023/07/16 00:47:09;;;;;;;9.70;3.20;;;16.70;99.90;;;;;;5093171;28;20075;-78
2023/07/16 00:49:35;;;;;;;13.07;4.10;;;16.70;99.90;;;;;;5094398;28;20055;-78
2023/07/16 00:52:01;;;;;;;10.00;3.10;;;16.70;99.90;;;;;;5094713;28;20040;-78
2023/07/16 00:54:29;;;;;;;11.43;3.37;;;16.70;99.90;;;;;;5094735;28;20052;-78
2023/07/16 00:56:55;;;;;;;15.80;3.60;;;16.70;99.90;;;;;;5094692;28;20048;-78
2023/07/16 00:59:21;;;;;;;11.20;3.13;;;16.70;99.90;;;;;;5093615;28;20055;-78
2023/07/16 01:01:46;;;;;;;12.90;3.53;;;16.80;99.90;;;;;;5094299;28;20108;-78
2023/07/16 01:04:12;;;;;;;13.00;3.83;;;16.70;99.90;;;;;;5076707;28;20097;-77
2023/07/16 01:06:41;;;;;;;12.17;3.80;;;16.80;99.90;;;;;;5093108;28;20044;-78
2023/07/16 01:09:13;;;;;;;12.33;3.40;;;16.80;99.90;;;;;;5094344;28;20101;-78
2023/07/16 01:11:40;;;;;;;11.47;3.83;;;16.80;99.90;;;;;;5092511;28;20535;-78
2023/07/16 01:14:08;;;;;;;11.47;3.60;;;16.90;99.90;;;;;;5092977;28;20044;-78
2023/07/16 01:16:33;;;;;;;11.07;3.80;;;16.90;99.90;;;;;;5093877;28;20182;-78
2023/07/16 01:18:59;;;;;;;13.17;3.27;;;16.90;99.90;;;;;;5094075;28;20134;-77
2023/07/16 01:21:31;;;;;;;12.47;3.70;;;16.90;99.90;;;;;;5094266;28;20070;-77
2023/07/16 01:24:13;;;;;;;13.23;3.60;;;16.90;99.90;;;;;;5094060;28;20058;-77
2023/07/16 01:27:33;;;;;;;10.10;3.87;;;16.90;99.90;;;;;;5093708;28;20084;-78
2023/07/16 01:30:04;;;;;;;14.43;3.87;;;16.90;99.90;;;;;;5071210;28;20139;-77
2023/07/16 01:32:34;;;;;;;14.30;4.17;;;16.80;99.90;;;;;;5089724;28;20052;-77
2023/07/16 01:35:00;;;;;;;9.53;3.60;;;16.90;99.90;;;;;;5092657;28;20093;-77
2023/07/16 01:37:26;;;;;;;11.37;3.73;;;16.90;99.90;;;;;;5093699;28;20048;-78
2023/07/16 01:39:52;;;;;;;10.47;3.40;;;16.80;99.90;;;;;;5093224;28;20056;-78
2023/07/16 01:42:17;;;;;;;16.50;4.20;;;16.80;99.90;;;;;;5092468;28;20075;-78
2023/07/16 01:44:43;;;;;;;11.30;4.50;;;16.80;99.90;;;;;;5091861;28;20048;-78
2023/07/16 01:47:19;;;;;;;10.90;3.00;;;16.80;99.90;;;;;;5093690;28;20048;-78
2023/07/16 01:49:45;;;;;;;19.40;3.43;;;16.70;99.90;;;;;;5092297;28;20073;-77
2023/07/16 01:52:10;;;;;;;11.77;3.20;;;16.70;99.90;;;;;;5093494;28;20127;-77
2023/07/16 01:54:36;;;;;;;11.33;3.20;;;16.70;99.90;;;;;;5092060;28;20040;-78
2023/07/16 01:57:02;;;;;;;14.40;3.23;;;16.70;99.90;;;;;;5093170;28;20048;-77
2023/07/16 01:59:28;;;;;;;8.93;2.80;;;16.70;99.90;;;;;;5092721;28;20046;-77
2023/07/16 02:01:54;;;;;;;10.03;3.23;;;16.70;99.90;;;;;;5091916;28;20040;-77
2023/07/16 02:04:20;;;;;;;11.17;3.03;;;16.60;99.90;;;;;;5093009;28;20040;-77
2023/07/16 02:06:47;;;;;;;11.20;2.93;;;16.60;99.90;;;;;;5092992;28;20044;-77
2023/07/16 02:09:13;;;;;;;9.23;3.30;;;16.60;99.90;;;;;;5092280;28;20048;-78
2023/07/16 02:11:39;;;;;;;12.77;3.30;;;16.60;99.90;;;;;;5092931;28;20048;-78
2023/07/16 02:14:05;;;;;;;7.83;3.07;;;16.60;99.90;;;;;;5093482;28;20105;-78
2023/07/16 02:16:31;;;;;;;11.13;3.10;;;16.60;99.90;;;;;;5093354;28;20172;-77
2023/07/16 02:18:56;;;;;;;8.90;2.90;;;16.60;99.90;;;;;;5092918;28;20580;-77
2023/07/16 02:21:22;;;;;;;10.13;3.37;;;16.60;99.90;;;;;;5093126;28;20047;-77
2023/07/16 02:23:48;;;;;;;9.40;3.00;;;16.60;99.90;;;;;;5092760;28;20051;-78
2023/07/16 02:26:13;;;;;;;10.37;3.67;;;16.60;99.90;;;;;;5092043;28;20384;-78
2023/07/16 02:28:39;;;;;;;12.80;3.70;;;16.60;99.90;;;;;;5091853;28;20519;-80
2023/07/16 02:31:05;;;;;;;9.57;3.60;;;16.60;99.90;;;;;;5092920;28;20043;-78
2023/07/16 02:33:30;;;;;;;11.53;4.33;;;16.60;99.90;;;;;;5092606;28;20048;-78
2023/07/16 02:35:56;;;;;;;9.17;3.70;;;16.60;99.90;;;;;;5092674;28;20051;-78
2023/07/16 02:38:22;;;;;;;12.13;4.13;;;16.60;99.90;;;;;;5092828;28;20074;-77
2023/07/16 02:40:48;;;;;;;11.27;3.10;;;16.60;99.90;;;;;;5092610;28;20040;-77
2023/07/16 02:43:14;;;;;;;15.93;4.17;;;16.60;99.90;;;;;;5091922;28;20464;-77
2023/07/16 02:45:40;;;;;;;9.90;4.13;;;16.60;99.90;;;;;;5092822;28;20131;-77
2023/07/16 02:48:07;;;;;;;13.80;4.27;;;16.60;99.90;;;;;;5074926;28;20056;-77
2023/07/16 02:50:37;;;;;;;11.97;3.83;;;16.60;99.90;;;;;;5092674;28;20076;-76
2023/07/16 02:53:07;;;;;;;12.53;4.93;;;16.60;99.90;;;;;;5092529;28;20087;-77
2023/07/16 02:55:34;;;;;;;11.80;4.03;;;16.60;99.90;;;;;;5092973;28;20127;-76
2023/07/16 02:58:04;;;;;;;9.30;3.87;;;16.60;99.90;;;;;;5092456;28;20046;-77
2023/07/16 03:00:30;;;;;;;12.50;4.20;;;16.60;99.90;;;;;;5092732;28;20106;-77
2023/07/16 03:02:56;;;;;;;10.63;3.87;;;16.50;99.90;;;;;;5092472;28;20055;-77
2023/07/16 03:05:22;;;;;;;10.30;4.47;;;16.50;99.90;;;;;;5092658;28;20048;-77
2023/07/16 03:07:47;;;;;;;10.07;4.40;;;16.50;99.90;;;;;;5092302;28;20051;-77
2023/07/16 03:10:13;;;;;;;14.40;5.07;;;16.50;99.90;;;;;;5094224;28;20083;-77
2023/07/16 03:12:39;;;;;;;12.73;4.07;;;16.40;99.90;;;;;;5095312;28;20052;-77
2023/07/16 03:15:05;;;;;;;10.10;4.40;;;16.50;99.90;;;;;;5096313;28;20889;-77
2023/07/16 03:17:30;;;;;;;13.17;5.13;;;16.50;99.90;;;;;;5096360;28;20536;-78
2023/07/16 03:19:56;;;;;;;9.87;4.37;;;16.50;99.90;;;;;;5096273;28;20218;-78
2023/07/16 03:22:22;;;;;;;13.03;4.50;;;16.50;99.90;;;;;;5094957;28;20036;-78
2023/07/16 03:24:47;;;;;;;12.63;4.30;;;16.50;99.90;;;;;;5096197;28;20085;-79
2023/07/16 03:27:13;;;;;;;9.60;4.50;;;16.50;99.90;;;;;;5096349;28;20134;-78
2023/07/16 03:29:39;;;;;;;19.30;5.37;;;16.50;99.90;;;;;;5095341;28;20051;-78
2023/07/16 03:32:05;;;;;;;11.43;5.03;;;16.50;99.90;;;;;;5096037;28;20052;-78
2023/07/16 03:34:30;;;;;;;14.20;4.63;;;16.50;99.90;;;;;;5096255;28;20134;-78
2023/07/16 03:36:56;;;;;;;12.07;4.50;;;16.50;99.90;;;;;;5096029;28;20067;-79
2023/07/16 03:39:22;;;;;;;10.07;4.43;;;16.60;99.90;;;;;;5096349;28;20052;-78
2023/07/16 03:41:47;;;;;;;10.53;4.27;;;16.60;99.90;;;;;;5095912;28;20060;-81
2023/07/16 03:44:13;;;;;;;11.00;4.43;;;16.60;99.90;;;;;;5096062;28;20399;-78
2023/07/16 03:46:40;;;;;;;14.70;4.57;;;16.60;99.90;;;;;;5094892;28;20084;-78
2023/07/16 03:49:09;;;;;;;13.67;4.80;;;16.60;99.90;;;;;;5094658;28;20048;-78
2023/07/16 03:51:35;;;;;;;10.97;4.30;;;16.60;99.90;;;;;;5095992;28;20044;-78
2023/07/16 03:54:01;;;;;;;14.47;5.07;;;16.60;99.90;;;;;;5095663;28;20051;-78
2023/07/16 03:56:26;;;;;;;12.20;4.90;;;16.60;99.90;;;;;;5095865;28;20117;-78
2023/07/16 03:58:52;;;;;;;10.10;4.63;;;16.70;99.90;;;;;;5094341;28;20078;-78
2023/07/16 04:01:18;;;;;;;14.17;5.17;;;16.70;99.90;;;;;;5094763;28;20079;-77
2023/07/16 04:03:43;;;;;;;14.87;4.70;;;16.70;99.90;;;;;;5095766;28;20051;-78
2023/07/16 04:06:10;;;;;;;12.87;5.10;;;16.80;99.90;;;;;;5095329;28;20445;-78
2023/07/16 04:08:37;;;;;;;15.57;5.50;;;16.80;99.90;;;;;;5094390;28;20434;-78
2023/07/16 04:11:06;;;;;;;15.00;5.67;;;16.80;99.90;;;;;;5095345;28;20056;-79
2023/07/16 04:13:32;;;;;;;11.63;5.20;;;16.80;99.90;;;;;;5095647;28;20044;-78
2023/07/16 04:15:58;;;;;;;12.27;5.73;;;16.80;99.90;;;;;;5094079;28;20059;-78
2023/07/16 04:18:24;;;;;;;11.80;5.13;;;16.80;99.90;;;;;;5095391;28;20051;-78
2023/07/16 04:20:50;;;;;;;10.33;4.97;;;16.90;99.90;;;;;;5095066;28;20048;-78
2023/07/16 04:23:16;;;;;;;13.23;4.80;;;16.90;99.90;;;;;;5094501;28;20070;-78
2023/07/16 04:25:42;;;;;;;10.07;4.93;;;17.00;99.90;;;;;;5095166;28;20040;-77
2023/07/16 04:28:08;;;;;;;12.43;5.13;;;17.00;99.90;;;;;;5094902;28;20055;-78
2023/07/16 04:30:33;;;;;;;14.10;5.77;;;17.10;99.90;;;;;;5095275;28;20480;-78
2023/07/16 04:32:59;;;;;;;12.93;5.60;;;17.10;99.90;;;;;;5094775;28;20123;-78
2023/07/16 04:35:25;;;;;;;16.97;5.40;;;17.10;99.90;;;;;;5094197;28;20051;-78
2023/07/16 04:37:50;;;;;;;12.83;6.20;;;17.10;99.90;;;;;;5094833;28;20056;-78
2023/07/16 04:40:16;;;;;;;15.43;6.50;;;17.20;99.90;;;;;;5094383;28;20044;-78
2023/07/16 04:42:42;;;;;;;14.30;5.33;;;17.20;99.90;;;;;;5093591;28;20076;-78
2023/07/16 04:45:08;;;;;;;14.20;6.23;;;17.30;99.90;;;;;;5093662;28;20072;-78
2023/07/16 04:47:33;;;;;;;15.67;6.00;;;17.30;99.90;;;;;;5093468;28;20113;-77
2023/07/16 04:50:00;;;;;;;11.33;5.83;;;17.40;99.90;;;;;;5094447;28;20044;-77
2023/07/16 04:52:25;;;;;;;13.17;5.77;;;17.50;99.90;;;;;;5094593;28;20044;-77
2023/07/16 04:54:51;;;;;;;13.77;6.37;;;17.50;99.90;;;;;;5094621;28;20511;-77
2023/07/16 04:57:17;;;;;;;13.07;5.90;;;17.60;99.90;;;;;;5093354;28;20056;-78
2023/07/16 04:59:42;;;;;;;14.20;7.30;;;17.60;99.90;;;;;;5094513;28;20054;-77
2023/07/16 05:02:08;;;;;;;11.87;5.80;;;17.60;99.90;;;;;;5094269;28;20046;-78
2023/07/16 05:04:36;;;;;;;11.10;5.83;;;17.60;99.90;;;;;;5094604;28;20392;-78
2023/07/16 05:07:02;;;;;;;15.13;6.00;;;17.60;99.90;;;;;;5094296;28;20043;-78
2023/07/16 05:09:29;;;;;;;12.80;5.13;;;17.60;99.90;;;;;;5094654;28;20515;-78
2023/07/16 05:11:54;;;;;;;16.67;5.87;;;17.60;99.90;;;;;;5094284;28;20036;-78
2023/07/16 05:14:20;;;;;;;12.90;5.47;;;17.70;99.90;;;;;;5093730;28;20044;-78
2023/07/16 05:16:46;;;;;;;12.37;6.17;;;17.70;99.90;;;;;;5093312;28;20100;-79
2023/07/16 05:19:11;;;;;;;14.47;5.80;;;17.70;99.90;;;;;;5092924;28;20039;-79
2023/07/16 05:21:37;;;;;;;11.33;5.20;;;17.60;99.90;;;;;;5094320;28;20044;-78
2023/07/16 05:24:04;;;;;;;10.67;5.43;;;17.50;99.90;;;;;;5093736;28;20097;-79
2023/07/16 05:26:30;;;;;;;12.63;5.40;;;17.50;99.90;;;;;;5094021;28;20051;-78
2023/07/16 05:28:56;;;;;;;15.37;5.63;;;17.50;99.90;;;;;;5093027;28;20040;-78
2023/07/16 05:31:21;;;;;;;12.07;5.73;;;17.50;99.90;;;;;;5093593;28;20142;-78
2023/07/16 05:33:47;;;;;;;12.77;4.93;;;17.50;99.90;;;;;;5093579;28;20052;-79
2023/07/16 05:36:13;;;;;;;12.87;5.00;;;17.50;99.90;;;;;;5092652;28;20052;-78
2023/07/16 05:38:38;;;;;;;9.30;4.60;;;17.50;99.90;;;;;;5092324;28;20524;-78
2023/07/16 05:41:04;;;;;;;8.87;4.70;;;17.50;99.90;;;;;;5093511;28;20048;-79
2023/07/16 05:43:31;;;;;;;8.40;4.37;;;17.50;99.90;;;;;;5092692;28;20108;-78
2023/07/16 05:45:57;;;;;;;11.90;5.20;;;17.60;99.90;;;;;;5093604;28;20185;-79
2023/07/16 05:48:23;;;;;;;13.40;5.17;;;17.60;99.90;;;;;;5092445;28;20059;-78
2023/07/16 05:50:49;;;;;;;15.03;5.33;;;17.50;99.90;;;;;;5075902;28;20123;-78
2023/07/16 05:53:15;;;;;;;13.07;5.27;;;17.40;99.90;;;;;;5093312;28;20146;-80
2023/07/16 05:55:40;;;;;;;11.47;5.20;;;17.40;99.90;;;;;;5093641;28;20040;-78
2023/07/16 05:58:06;;;;;;;11.83;5.27;;;17.60;99.90;;;;;;5092199;28;20543;-78
2023/07/16 06:00:32;;;;;;;13.87;5.57;;;18.30;99.90;;;;;;5093456;28;20036;-80
2023/07/16 06:02:58;;;;;;;11.00;4.93;;;18.50;99.90;;;;;;5092311;28;20515;-79
2023/07/16 06:05:25;;;;;;;16.00;5.10;;;18.30;99.90;;;;;;5093194;28;20126;-79
2023/07/16 06:07:51;;;;;;;11.33;5.40;;;18.00;99.90;;;;;;5092351;28;20048;-78
2023/07/16 06:10:17;;;;;;;10.90;4.90;;;17.90;99.90;;;;;;5093061;28;20087;-79
2023/07/16 06:12:43;;;;;;;14.50;6.13;;;17.80;99.90;;;;;;5093190;28;20040;-78
2023/07/16 06:15:09;;;;;;;13.40;5.13;;;17.70;99.90;;;;;;5092000;28;20044;-78
2023/07/16 06:17:35;;;;;;;12.50;5.50;;;17.70;99.90;;;;;;5093347;28;20052;-78
2023/07/16 06:20:03;;;;;;;12.40;5.27;;;17.60;99.90;;;;;;5093071;28;20454;-78
2023/07/16 06:22:28;;;;;;;12.77;5.67;;;17.60;99.90;;;;;;5092953;28;20040;-78
2023/07/16 06:24:54;;;;;;;12.13;5.43;;;17.50;99.90;;;;;;5091925;28;20499;-78
2023/07/16 06:27:20;;;;;;;12.97;5.90;;;17.60;99.90;;;;;;5091618;28;20050;-78
2023/07/16 06:29:45;;;;;;;12.10;6.07;;;17.60;99.90;;;;;;5093106;28;20058;-78
2023/07/16 06:32:11;;;;;;;13.73;5.80;;;17.60;99.90;;;;;;5091625;28;20040;-80
2023/07/16 06:34:37;;;;;;;12.33;5.80;;;17.60;99.90;;;;;;5093137;28;20091;-78
2023/07/16 06:37:03;;;;;;;14.53;5.97;;;17.50;99.90;;;;;;5092268;28;20387;-78
2023/07/16 06:39:28;;;;;;;13.63;6.07;;;17.50;99.90;;;;;;5092486;28;20052;-79
2023/07/16 06:41:54;;;;;;;14.67;6.37;;;17.50;99.90;;;;;;5091907;28;20047;-79
2023/07/16 06:44:20;;;;;;;14.60;6.13;;;17.40;99.90;;;;;;5092308;28;20085;-79
2023/07/16 06:46:45;;;;;;;13.57;6.50;;;17.40;99.90;;;;;;5075046;28;20070;-79
2023/07/16 06:49:11;;;;;;;15.70;5.87;;;17.50;99.90;;;;;;5091472;28;20516;-80
2023/07/16 06:51:37;;;;;;;12.40;6.00;;;17.50;99.90;;;;;;5093046;28;20044;-77
2023/07/16 06:54:02;;;;;;;13.80;6.83;;;17.50;99.90;;;;;;5092909;28;20052;-78
2023/07/16 06:56:28;;;;;;;16.90;6.37;;;17.80;99.90;;;;;;5091588;28;20458;-78
2023/07/16 06:58:54;;;;;;;13.07;6.30;;;18.10;99.90;;;;;;5092796;28;20484;-77
2023/07/16 07:01:19;;;;;;;11.77;5.97;;;18.20;99.90;;;;;;5091542;28;20040;-77
2023/07/16 07:03:45;;;;;;;14.27;6.70;;;18.20;99.90;;;;;;5092712;28;20101;-77
2023/07/16 07:06:11;;;;;;;16.97;6.23;;;18.40;99.90;;;;;;5092784;28;20079;-76
2023/07/16 07:08:37;;;;;;;12.03;6.23;;;18.50;99.90;;;;;;5092606;28;20450;-78
2023/07/16 07:11:03;;;;;;;11.00;5.63;;;18.40;99.90;;;;;;5074676;28;20086;-77
2023/07/16 07:13:29;;;;;;;11.10;5.83;;;18.30;99.90;;;;;;5091152;28;20060;-78
2023/07/16 07:15:56;;;;;;;11.50;5.77;;;18.30;99.90;;;;;;5091395;28;20178;-78
2023/07/16 07:18:22;;;;;;;14.07;5.80;;;18.30;99.90;;;;;;5091116;28;20054;-73
2023/07/16 07:20:47;;;;;;;12.63;5.27;;;18.40;99.90;;;;;;5091360;28;20044;-72
2023/07/16 07:23:14;;;;;;;14.50;5.60;;;18.40;99.90;;;;;;5092435;28;20063;-74
2023/07/16 07:25:40;;;;;;;12.37;5.67;;;18.40;99.90;;;;;;5092852;28;20119;-73
2023/07/16 07:28:06;;;;;;;9.67;5.70;;;18.40;99.90;;;;;;5092551;28;20564;-73
2023/07/16 07:30:31;;;;;;;10.93;5.77;;;18.40;99.90;;;;;;5092065;28;20040;-73
2023/07/16 07:32:57;;;;;;;10.93;5.90;;;18.40;99.90;;;;;;5092678;28;20480;-73
2023/07/16 07:35:23;;;;;;;14.00;5.93;;;18.30;99.90;;;;;;5092163;28;20102;-73
2023/07/16 07:37:49;;;;;;;15.47;6.73;;;18.30;99.90;;;;;;5092354;28;20515;-73
2023/07/16 07:40:15;;;;;;;15.33;6.13;;;18.20;99.90;;;;;;5091443;28;20430;-73
2023/07/16 07:42:41;;;;;;;10.37;5.33;;;18.50;99.90;;;;;;5092235;28;20073;-73
2023/07/16 07:45:07;;;;;;;13.43;5.90;;;18.60;99.90;;;;;;5092335;28;20113;-72
2023/07/16 07:47:32;;;;;;;12.93;5.87;;;18.60;99.90;;;;;;5092017;28;20047;-73
2023/07/16 07:49:58;;;;;;;13.03;5.80;;;18.60;99.90;;;;;;5091294;28;20109;-73
2023/07/16 07:52:26;;;;;;;11.30;6.00;;;18.50;99.90;;;;;;5091984;28;20538;-73
2023/07/16 07:54:52;;;;;;;14.93;5.73;;;18.40;99.90;;;;;;5092338;28;20135;-74
2023/07/16 07:57:20;;;;;;;10.37;5.90;;;18.40;99.90;;;;;;5093738;28;20135;-80
2023/07/16 07:59:46;;;;;;;15.37;6.53;;;18.30;99.90;;;;;;5095931;28;20459;-74
2023/07/16 08:02:11;;;;;;;11.03;6.60;;;18.20;99.90;;;;;;5095870;28;20078;-73
2023/07/16 08:04:37;;;;;;;11.77;6.67;;;18.20;99.90;;;;;;5095561;28;20058;-76
2023/07/16 08:07:03;;;;;;;12.77;6.30;;;18.90;99.90;;;;;;5095759;28;20048;-75
2023/07/16 08:09:28;;;;;;;11.77;6.10;;;19.30;99.90;;;;;;5094465;28;20052;-75
2023/07/16 08:11:54;;;;;;;15.57;8.20;;;19.20;99.90;;;;;;5094340;28;20051;-77
2023/07/16 08:14:20;;;;;;;14.50;6.43;;;19.00;99.90;;;;;;5094984;28;20036;-79
2023/07/16 08:16:45;;;;;;;9.40;6.40;;;19.30;99.90;;;;;;5094169;28;20513;-76
2023/07/16 08:19:11;;;;;;;14.93;6.80;;;20.30;99.90;;;;;;5095624;28;20122;-76
2023/07/16 08:21:37;;;;;;;14.87;6.80;;;20.90;99.90;;;;;;5093842;28;20048;-76
2023/07/16 08:24:05;;;;;;;12.07;6.17;;;21.10;99.90;;;;;;5094946;28;20048;-76
2023/07/16 08:26:31;;;;;;;9.50;5.90;;;21.60;99.90;;;;;;5094668;28;20040;-77
2023/07/16 08:28:56;;;;;;;12.87;5.93;;;21.90;99.90;;;;;;5094009;28;20373;-75
2023/07/16 08:31:22;;;;;;;12.60;6.03;;;21.60;99.90;;;;;;5093446;28;20048;-74
2023/07/16 08:33:48;;;;;;;12.40;6.53;;;21.40;99.90;;;;;;5075009;28;20048;-74
2023/07/16 08:36:14;;;;;;;11.03;6.13;;;21.40;99.90;;;;;;5075029;28;20055;-74
2023/07/16 08:38:39;;;;;;;9.93;5.53;;;21.20;99.90;;;;;;5074571;28;20493;-75
2023/07/16 08:41:05;;;;;;;11.93;5.80;;;21.10;99.90;;;;;;5075057;28;20059;-73
2023/07/16 08:43:33;;;;;;;11.73;5.90;;;21.50;99.90;;;;;;5073764;28;20098;-75
2023/07/16 08:46:01;;;;;;;11.77;5.83;;;21.80;99.90;;;;;;5074974;28;20451;-74
2023/07/16 08:48:28;;;;;;;15.60;6.00;;;21.80;99.90;;;;;;5074497;28;20049;-75
2023/07/16 08:50:57;;;;;;;10.10;5.80;;;21.80;99.90;;;;;;5074650;28;20048;-72
2023/07/16 08:53:23;;;;;;;12.53;5.70;;;21.90;99.90;;;;;;5074692;28;20052;-73
2023/07/16 08:55:49;;;;;;;12.80;5.87;;;21.80;99.90;;;;;;5074497;28;20052;-74
2023/07/16 08:58:15;;;;;;;9.13;5.20;;;21.60;99.90;;;;;;5074523;28;20040;-72
2023/07/16 09:00:45;;;;;;;10.93;5.33;;;21.40;99.90;;;;;;5074124;28;20499;-73
2023/07/16 09:03:16;;;;;;;12.03;6.33;;;21.10;99.90;;;;;;5074392;28;20101;-73
2023/07/16 09:05:43;;;;;;;13.67;5.63;;;20.80;99.90;;;;;;5074069;28;20044;-72
2023/07/16 09:08:09;;;;;;;14.50;6.13;;;20.40;99.90;;;;;;5072991;28;20479;-73
2023/07/16 09:10:36;;;;;;;11.00;5.70;;;20.20;99.90;;;;;;5072931;28;20052;-73
2023/07/16 09:13:01;;;;;;;13.63;6.00;;;20.30;99.90;;;;;;5074419;28;20048;-73
2023/07/16 09:15:29;;;;;;;13.83;5.23;;;20.40;99.90;;;;;;5073916;28;20059;-75
2023/07/16 09:17:55;;;;;;;11.13;5.83;;;20.60;99.90;;;;;;5074117;28;20393;-72
2023/07/16 09:20:23;;;;;;;13.60;6.03;;;20.80;99.90;;;;;;5074051;28;20045;-74
2023/07/16 09:22:50;;;;;;;12.17;5.83;;;20.70;99.90;;;;;;5088251;28;20055;-74
2023/07/16 09:25:16;;;;;;;9.40;5.57;;;20.50;99.90;;;;;;5093996;28;20496;-74
2023/07/16 09:27:42;;;;;;;13.20;6.30;;;20.30;99.90;;;;;;5094001;28;20048;-73
2023/07/16 09:30:15;;;;;;;10.53;5.17;;;20.30;99.90;;;;;;5093183;28;20102;-72
2023/07/16 09:32:41;;;;;;;14.53;6.17;;;20.20;99.90;;;;;;5092679;28;20048;-73
2023/07/16 09:35:11;;;;;;;13.10;5.50;;;20.20;99.90;;;;;;5094062;28;20552;-75
2023/07/16 09:37:40;;;;;;;12.07;6.20;;;20.30;99.90;;;;;;5092345;28;20077;-74
2023/07/16 09:40:09;;;;;;;15.67;5.57;;;20.40;99.90;;;;;;5094215;28;20083;-74
2023/07/16 09:42:43;;;;;;;12.17;5.50;;;20.50;99.90;;;;;;5092395;28;20051;-74
2023/07/16 09:45:17;;;;;;;14.48;6.22;;;20.70;99.90;;;;;;5092868;28;20056;-74
2023/07/16 09:47:43;;;;;;;13.52;4.75;;;20.90;99.90;;;;;;5093690;28;20044;-75
2023/07/16 09:50:11;;;;;;;11.30;5.20;;;21.00;99.90;;;;;;5093730;28;20058;-73
2023/07/16 09:52:37;;;;;;;12.67;4.87;;;20.90;99.90;;;;;;5092161;28;20546;-73
2023/07/16 09:55:04;;;;;;;9.30;4.50;;;20.80;99.90;;;;;;5093800;28;20063;-73
2023/07/16 09:57:36;;;;;;;10.53;4.53;;;20.70;99.90;;;;;;5093757;28;20047;-74
2023/07/16 10:00:06;;;;;;;11.23;5.97;;;20.60;99.90;;;;;;5093839;28;20122;-74
2023/07/16 10:02:36;;;;;;;14.10;5.97;;;20.50;99.90;;;;;;5093426;28;20052;-76
2023/07/16 10:05:28;;;;;;;11.90;5.80;;;20.50;99.90;;;;;;5093479;28;20059;-73
2023/07/16 10:08:00;;;;;;;13.30;6.10;;;20.70;99.90;;;;;;5090653;28;20056;-74
2023/07/16 10:10:40;;;;;;;13.90;5.83;;;20.80;99.90;;;;;;5093587;28;20059;-74
2023/07/16 10:13:07;;;;;;;10.27;5.47;;;20.80;99.90;;;;;;5093271;28;20134;-72
2023/07/16 10:15:33;;;;;;;9.83;5.40;;;20.60;99.90;;;;;;5093303;28;20059;-75
2023/07/16 10:17:59;;;;;;;17.50;5.73;;;20.50;99.90;;;;;;5092897;28;20044;-73
2023/07/16 10:20:33;;;;;;;12.07;5.27;;;20.30;99.90;;;;;;5092431;28;20048;-72
2023/07/16 10:23:12;;;;;;;13.60;6.93;;;20.30;99.90;;;;;;5093182;28;20105;-73
2023/07/16 10:25:38;;;;;;;11.83;6.27;;;20.40;99.90;;;;;;5092866;28;20048;-73
2023/07/16 10:28:04;;;;;;;12.13;6.33;;;20.50;99.90;;;;;;5093041;28;20051;-73
2023/07/16 10:30:30;;;;;;;10.60;5.60;;;20.60;99.90;;;;;;5093078;28;20043;-73
2023/07/16 10:32:56;;;;;;;10.57;5.70;;;20.80;99.90;;;;;;5092691;28;20179;-74
2023/07/16 10:35:22;;;;;;;11.57;5.70;;;21.00;99.90;;;;;;5093013;28;20340;-74
2023/07/16 10:37:48;;;;;;;10.83;5.70;;;21.10;99.90;;;;;;5092570;28;20052;-75
2023/07/16 10:40:14;;;;;;;11.00;5.53;;;21.10;99.90;;;;;;5093122;28;20365;-75
2023/07/16 10:42:46;;;;;;;11.27;5.67;;;21.10;99.90;;;;;;5091466;28;20123;-73
2023/07/16 10:45:12;;;;;;;11.57;5.33;;;21.20;99.90;;;;;;5091932;28;20142;-73
2023/07/16 10:47:50;;;;;;;12.17;5.77;;;21.30;99.90;;;;;;5092683;28;20044;-77
2023/07/16 10:50:17;;;;;;;9.60;4.13;;;21.20;99.90;;;;;;5092963;28;20052;-72
2023/07/16 10:52:42;;;;;;;11.30;5.40;;;21.20;99.90;;;;;;5092566;28;20052;-74
2023/07/16 10:55:08;;;;;;;10.90;5.00;;;21.10;99.90;;;;;;5091541;28;20075;-73
2023/07/16 10:57:35;;;;;;;10.63;5.20;;;21.10;99.90;;;;;;5092768;28;20105;-73
2023/07/16 11:00:01;;;;;;;8.83;4.83;;;21.10;99.90;;;;;;5092517;28;20048;-72
2023/07/16 11:02:27;;;;;;;12.00;5.27;;;21.10;99.90;;;;;;5091608;28;20446;-72
2023/07/16 11:04:53;;;;;;;12.87;5.23;;;21.10;99.90;;;;;;5091168;28;20055;-73
2023/07/16 11:07:20;;;;;;;9.50;4.10;;;21.10;99.90;;;;;;5092418;28;20054;-72
2023/07/16 11:09:54;;;;;;;8.37;4.73;;;21.00;99.90;;;;;;5074650;28;20048;-74
2023/07/16 11:12:22;;;;;;;10.13;5.00;;;20.80;99.90;;;;;;5092703;28;20427;-73
2023/07/16 11:14:53;;;;;;;12.73;5.13;;;20.60;99.90;;;;;;5091912;28;20044;-74
2023/07/16 11:17:21;;;;;;;9.63;5.00;;;20.60;99.90;;;;;;5091418;28;20051;-73
2023/07/16 11:19:49;;;;;;;11.67;4.80;;;20.80;99.90;;;;;;5074495;28;20048;-77
2023/07/16 11:22:15;;;;;;;12.47;4.33;;;20.90;99.90;;;;;;5092568;28;20087;-73
2023/07/16 11:24:47;;;;;;;9.63;3.97;;;21.10;99.90;;;;;;5092196;28;20488;-72
2023/07/16 11:27:14;;;;;;;9.57;4.20;;;21.20;99.90;;;;;;5074961;28;20059;-73
2023/07/16 11:30:01;;;;;;;11.70;3.67;;;21.30;99.90;;;;;;5092505;28;20517;-72
2023/07/16 11:32:27;;;;;;;10.93;4.13;;;21.40;99.90;;;;;;5090325;28;20052;-77
2023/07/16 11:34:54;;;;;;;9.57;3.47;;;21.50;99.90;;;;;;5089862;28;20063;-74
2023/07/16 11:37:23;;;;;;;12.83;3.70;;;21.50;99.90;;;;;;5095113;28;20089;-73
2023/07/16 11:39:49;;;;;;;9.77;3.63;;;21.50;99.90;;;;;;5094537;28;20060;-76
2023/07/16 11:42:22;;;;;;;13.10;3.13;;;21.60;99.90;;;;;;5094675;28;20106;-76
2023/07/16 11:44:49;;;;;;;12.07;3.60;;;21.70;99.90;;;;;;5092774;28;20052;-75
2023/07/16 11:47:15;;;;;;;11.40;4.10;;;21.80;99.90;;;;;;5094759;28;20050;-76
2023/07/16 11:49:40;;;;;;;12.00;3.43;;;22.00;99.90;;;;;;5094995;28;20180;-74
2023/07/16 11:52:07;;;;;;;14.27;3.73;;;22.10;99.90;;;;;;5094364;28;20483;-74
2023/07/16 11:54:33;;;;;;;11.63;4.40;;;22.10;99.90;;;;;;5092180;28;20052;-75
2023/07/16 11:56:58;;;;;;;9.30;4.37;;;22.10;99.90;;;;;;5094654;28;20126;-74
2023/07/16 11:59:24;;;;;;;11.77;4.70;;;22.00;99.90;;;;;;5095031;28;20480;-74
2023/07/16 12:01:50;;;;;;;10.77;3.97;;;21.80;99.90;;;;;;5092761;28;20048;-78
2023/07/16 12:04:17;;;;;;;9.93;4.70;;;21.70;99.90;;;;;;5083633;28;20051;-74
2023/07/16 12:06:43;;;;;;;10.47;4.80;;;21.80;99.90;;;;;;5093511;28;20056;-73
2023/07/16 12:09:09;;;;;;;10.50;4.60;;;21.90;99.90;;;;;;5094401;28;20052;-73
2023/07/16 12:11:35;;;;;;;10.03;4.57;;;22.00;99.90;;;;;;5093615;28;21050;-74
2023/07/16 12:14:01;;;;;;;12.00;4.87;;;22.00;99.90;;;;;;5074274;28;20040;-74
2023/07/16 12:16:26;;;;;;;11.87;4.07;;;22.00;99.90;;;;;;5094057;28;20624;-74
2023/07/16 12:18:52;;;;;;;10.97;4.73;;;21.90;99.90;;;;;;5092571;28;20051;-75
2023/07/16 12:21:18;;;;;;;13.43;4.43;;;21.90;99.90;;;;;;5091602;28;20458;-74
2023/07/16 12:23:43;;;;;;;10.83;4.20;;;21.90;99.90;;;;;;5091716;28;20040;-75
2023/07/16 12:26:09;;;;;;;14.80;4.87;;;21.80;99.90;;;;;;5093687;28;20044;-75
2023/07/16 12:28:35;;;;;;;13.50;3.93;;;21.90;99.90;;;;;;5094189;28;20043;-75
2023/07/16 12:31:00;;;;;;;12.90;4.10;;;21.90;99.90;;;;;;5093960;28;20197;-74
2023/07/16 12:33:26;;;;;;;9.57;4.27;;;21.90;99.90;;;;;;5095266;28;20044;-74
2023/07/16 12:35:52;;;;;;;14.77;4.60;;;21.90;99.90;;;;;;5094712;28;20164;-74